createdAt,value
2017-11-22T00:01:45.813Z,3.90
2017-11-22T00:04:11.799Z,4.60
2017-11-22T00:06:39.381Z,5.73
2017-11-22T00:09:06.091Z,5.47
2017-11-22T00:11:32.101Z,7.18
2017-11-22T00:13:58.128Z,6.70
2017-11-22T00:16:24.159Z,7.18
2017-11-22T00:18:50.155Z,7.68
2017-11-22T00:21:16.153Z,7.13
2017-11-22T00:23:42.135Z,6.62
2017-11-22T00:26:08.116Z,8.50
2017-11-22T00:28:34.131Z,9.20
2017-11-22T00:31:00.127Z,18.87
2017-11-22T00:33:26.129Z,35.80
2017-11-22T00:35:52.901Z,26.00
2017-11-22T00:38:18.880Z,26.40
2017-11-22T00:40:44.884Z,33.45
2017-11-22T00:43:10.886Z,38.58
2017-11-22T00:45:36.883Z,40.10
2017-11-22T00:48:02.882Z,42.78
2017-11-22T00:50:29.665Z,46.70
2017-11-22T00:52:55.679Z,44.28
2017-11-22T00:55:21.693Z,47.85
2017-11-22T00:57:47.722Z,47.08
2017-11-22T01:00:13.703Z,48.53
2017-11-22T01:02:40.453Z,48.30
2017-11-22T01:05:07.393Z,49.87
2017-11-22T01:07:34.139Z,49.65
2017-11-22T01:10:00.868Z,48.95
2017-11-22T01:12:27.613Z,47.40
2017-11-22T01:14:54.335Z,46.45
2017-11-22T01:17:20.321Z,47.92
2017-11-22T01:19:46.315Z,48.00
2017-11-22T01:22:12.310Z,46.60
2017-11-22T01:24:39.340Z,46.30
2017-11-22T01:27:05.334Z,45.10
2017-11-22T01:29:31.344Z,43.90
2017-11-22T01:31:57.338Z,44.85
2017-11-22T01:34:24.098Z,41.90
2017-11-22T01:36:50.087Z,43.97
2017-11-22T01:39:17.121Z,45.80
2017-11-22T01:41:43.152Z,44.00
2017-11-22T01:44:09.914Z,44.92
2017-11-22T01:46:35.937Z,43.90
2017-11-22T01:49:01.936Z,43.73
2017-11-22T01:51:27.938Z,43.60
2017-11-22T01:53:53.966Z,42.83
2017-11-22T01:56:19.966Z,42.03
2017-11-22T01:58:45.955Z,43.03
2017-11-22T02:01:12.261Z,41.60
2017-11-22T02:03:39.005Z,41.25
2017-11-22T02:06:05.000Z,40.95
2017-11-22T02:08:31.058Z,38.60
2017-11-22T02:10:57.049Z,37.58
2017-11-22T02:13:23.037Z,36.47
2017-11-22T02:15:49.049Z,37.67
2017-11-22T02:18:15.070Z,35.28
2017-11-22T02:20:41.098Z,35.22
2017-11-22T02:23:07.078Z,33.58
2017-11-22T02:25:33.824Z,32.47
2017-11-22T02:28:00.584Z,31.02
2017-11-22T02:30:26.572Z,33.10
2017-11-22T02:32:53.310Z,31.17
2017-11-22T02:35:27.142Z,28.10
2017-11-22T02:37:53.144Z,29.43
2017-11-22T02:40:19.886Z,28.85
2017-11-22T02:42:46.673Z,28.20
2017-11-22T02:45:12.672Z,26.52
2017-11-22T02:47:38.969Z,26.70
2017-11-22T02:50:05.769Z,26.05
2017-11-22T02:52:31.759Z,25.05
2017-11-22T02:54:57.766Z,24.63
2017-11-22T02:57:24.482Z,22.98
2017-11-22T02:59:50.474Z,23.90
2017-11-22T03:02:17.269Z,23.87
2017-11-22T03:04:43.992Z,21.25
2017-11-22T03:07:10.723Z,22.00
2017-11-22T03:09:36.726Z,22.50
2017-11-22T03:12:02.726Z,22.93
2017-11-22T03:14:28.769Z,20.30
2017-11-22T03:16:54.764Z,19.90
2017-11-22T03:19:20.746Z,20.85
2017-11-22T03:21:47.507Z,20.75
2017-11-22T03:24:13.496Z,21.52
2017-11-22T03:26:39.470Z,20.75
2017-11-22T03:29:05.482Z,20.97
2017-11-22T03:31:31.465Z,19.25
2017-11-22T03:33:58.195Z,22.02
2017-11-22T03:36:24.325Z,21.05
2017-11-22T03:38:50.344Z,22.10
2017-11-22T03:41:16.338Z,22.87
2017-11-22T03:43:42.385Z,21.10
2017-11-22T03:46:08.381Z,23.07
2017-11-22T03:48:34.444Z,22.75
2017-11-22T03:51:02.031Z,23.08
2017-11-22T03:53:34.102Z,23.55
2017-11-22T03:56:00.095Z,23.60
2017-11-22T03:58:26.851Z,23.60
2017-11-22T04:00:52.877Z,22.73
2017-11-22T04:03:18.886Z,24.20
2017-11-22T04:05:52.576Z,23.70
2017-11-22T04:08:19.307Z,24.30
2017-11-22T04:10:47.219Z,23.80
2017-11-22T04:13:13.229Z,24.98
2017-11-22T04:15:39.593Z,25.67
2017-11-22T04:18:05.634Z,25.20
2017-11-22T04:20:37.962Z,25.70
2017-11-22T04:23:03.934Z,25.40
2017-11-22T04:25:29.907Z,26.00
2017-11-22T04:27:55.908Z,25.73
2017-11-22T04:30:21.902Z,25.33
2017-11-22T04:32:48.705Z,25.45
2017-11-22T04:35:14.711Z,26.10
2017-11-22T04:37:40.689Z,25.23
2017-11-22T04:40:06.659Z,24.73
2017-11-22T04:42:33.212Z,24.02
2017-11-22T04:44:59.202Z,25.12
2017-11-22T04:47:25.226Z,26.80
2017-11-22T04:49:51.237Z,26.20
2017-11-22T04:52:17.261Z,26.85
2017-11-22T04:54:43.293Z,27.85
2017-11-22T04:57:09.585Z,29.05
2017-11-22T04:59:36.379Z,29.83
2017-11-22T05:02:02.369Z,30.10
2017-11-22T05:04:28.391Z,32.30
2017-11-22T05:06:55.123Z,32.25
2017-11-22T05:09:21.876Z,32.92
2017-11-22T05:11:47.842Z,33.87
2017-11-22T05:14:14.206Z,32.92
2017-11-22T05:16:40.942Z,34.35
2017-11-22T05:19:07.682Z,34.90
2017-11-22T05:21:34.618Z,34.33
2017-11-22T05:24:00.593Z,34.33
2017-11-22T05:26:26.566Z,35.10
2017-11-22T05:28:52.573Z,34.60
2017-11-22T05:31:18.592Z,33.80
2017-11-22T05:33:44.580Z,33.75
2017-11-22T05:36:10.607Z,34.08
2017-11-22T05:38:36.640Z,35.60
2017-11-22T05:41:02.637Z,33.03
2017-11-22T05:43:28.619Z,34.05
2017-11-22T05:45:54.626Z,33.08
2017-11-22T05:48:20.628Z,32.05
2017-11-22T05:50:46.617Z,30.53
2017-11-22T05:53:12.647Z,30.73
2017-11-22T05:55:38.629Z,29.55
2017-11-22T05:58:05.386Z,30.00
2017-11-22T06:00:38.575Z,30.27
2017-11-22T06:03:05.309Z,28.08
2017-11-22T06:05:32.046Z,29.70
2017-11-22T06:07:59.002Z,28.02
2017-11-22T06:10:24.998Z,29.07
2017-11-22T06:12:50.994Z,27.92
2017-11-22T06:15:17.167Z,27.53
2017-11-22T06:17:43.134Z,29.42
2017-11-22T06:20:09.131Z,27.60
2017-11-22T06:22:35.132Z,27.30
2017-11-22T06:25:01.867Z,28.52
2017-11-22T06:27:28.605Z,26.55
2017-11-22T06:29:56.686Z,26.33
2017-11-22T06:32:23.414Z,26.35
2017-11-22T06:34:50.143Z,25.70
2017-11-22T06:37:16.125Z,25.77
2017-11-22T06:39:42.107Z,23.70
2017-11-22T06:42:08.823Z,22.70
2017-11-22T06:44:35.571Z,22.50
2017-11-22T06:47:02.298Z,23.12
2017-11-22T06:49:28.287Z,23.60
2017-11-22T06:51:54.280Z,21.80
2017-11-22T06:54:20.268Z,20.60
2017-11-22T06:56:46.242Z,22.00
2017-11-22T06:59:12.254Z,21.10
2017-11-22T07:01:38.276Z,22.58
2017-11-22T07:04:04.283Z,21.90
2017-11-22T07:06:30.562Z,20.70
2017-11-22T07:08:56.550Z,21.80
2017-11-22T07:11:22.569Z,20.60
2017-11-22T07:13:49.036Z,20.80
2017-11-22T07:16:21.350Z,21.20
2017-11-22T07:18:48.098Z,21.42
2017-11-22T07:21:15.018Z,20.90
2017-11-22T07:23:41.742Z,21.70
2017-11-22T07:26:07.754Z,21.35
2017-11-22T07:28:34.823Z,20.83
2017-11-22T07:31:01.559Z,21.42
2017-11-22T07:33:27.522Z,21.00
2017-11-22T07:35:59.843Z,21.33
2017-11-22T07:38:25.825Z,21.90
2017-11-22T07:40:51.795Z,22.00
2017-11-22T07:43:17.804Z,21.67
2017-11-22T07:45:43.853Z,21.87
2017-11-22T07:48:14.478Z,21.73
2017-11-22T07:50:41.260Z,21.87
2017-11-22T07:53:07.252Z,22.40
2017-11-22T07:55:34.045Z,22.42
2017-11-22T07:58:00.081Z,22.98
2017-11-22T08:00:26.038Z,22.75
2017-11-22T08:02:58.185Z,21.20
2017-11-22T08:05:24.941Z,24.10
2017-11-22T08:07:51.690Z,23.42
2017-11-22T08:10:17.762Z,22.70
2017-11-22T08:12:43.804Z,23.55
2017-11-22T08:15:09.787Z,23.07
2017-11-22T08:17:35.783Z,22.85
2017-11-22T08:20:01.981Z,23.43
2017-11-22T08:22:28.723Z,23.92
2017-11-22T08:24:55.442Z,23.73
2017-11-22T08:27:21.787Z,23.30
2017-11-22T08:29:47.782Z,24.52
2017-11-22T08:32:13.750Z,24.20
2017-11-22T08:34:40.709Z,24.35
2017-11-22T08:37:06.706Z,23.63
2017-11-22T08:39:33.434Z,23.80
2017-11-22T08:42:00.158Z,23.35
2017-11-22T08:44:26.924Z,22.73
2017-11-22T08:46:54.580Z,24.17
2017-11-22T08:49:21.330Z,23.42
2017-11-22T08:51:48.080Z,23.90
2017-11-22T08:54:20.322Z,23.23
2017-11-22T08:56:53.273Z,23.23
2017-11-22T08:59:19.250Z,24.58
2017-11-22T09:01:45.285Z,26.02
2017-11-22T09:04:11.257Z,23.80
2017-11-22T09:06:38.050Z,25.02
2017-11-22T09:09:04.339Z,22.90
2017-11-22T09:11:30.320Z,22.90
2017-11-22T09:13:56.301Z,22.65
2017-11-22T09:16:22.677Z,22.80
2017-11-22T09:18:53.544Z,21.58
2017-11-22T09:21:20.294Z,22.15
2017-11-22T09:23:47.061Z,22.35
2017-11-22T09:26:13.038Z,21.10
2017-11-22T09:28:39.037Z,21.27
2017-11-22T09:31:11.137Z,21.50
2017-11-22T09:33:37.115Z,20.88
2017-11-22T09:36:03.138Z,22.30
2017-11-22T09:38:29.149Z,20.70
2017-11-22T09:40:55.190Z,22.30
2017-11-22T09:43:21.161Z,20.83
2017-11-22T09:45:47.905Z,22.05
2017-11-22T09:48:14.623Z,23.08
2017-11-22T09:50:40.591Z,25.08
2017-11-22T09:53:06.583Z,22.87
2017-11-22T09:55:33.302Z,22.77
2017-11-22T09:57:59.283Z,29.80
2017-11-22T10:00:25.308Z,46.13
2017-11-22T10:02:51.303Z,23.85
2017-11-22T10:05:17.283Z,23.40
2017-11-22T10:07:44.095Z,23.25
2017-11-22T10:10:10.061Z,22.95
2017-11-22T10:12:36.788Z,23.40
2017-11-22T10:15:02.782Z,23.53
2017-11-22T10:17:31.707Z,22.35
2017-11-22T10:20:03.627Z,22.60
2017-11-22T10:22:29.632Z,21.35
2017-11-22T10:25:02.170Z,21.97
2017-11-22T10:27:28.906Z,21.90
2017-11-22T10:29:55.665Z,21.20
2017-11-22T10:32:25.394Z,20.83
2017-11-22T10:34:51.382Z,21.17
2017-11-22T10:37:18.222Z,21.62
2017-11-22T10:39:44.963Z,20.80
2017-11-22T10:42:11.714Z,20.17
2017-11-22T10:44:37.712Z,18.80
2017-11-22T10:47:04.450Z,18.73
2017-11-22T10:49:30.447Z,19.15
2017-11-22T10:51:56.439Z,19.15
2017-11-22T10:54:22.423Z,18.65
2017-11-22T10:56:49.157Z,19.37
2017-11-22T10:59:15.143Z,17.73
2017-11-22T11:01:41.117Z,18.37
2017-11-22T11:04:08.280Z,18.87
2017-11-22T11:06:34.286Z,16.20
2017-11-22T11:09:01.032Z,15.63
2017-11-22T11:11:27.037Z,17.33
2017-11-22T11:13:53.764Z,16.98
2017-11-22T11:16:19.750Z,16.75
2017-11-22T11:18:45.947Z,17.20
2017-11-22T11:21:11.945Z,17.10
2017-11-22T11:23:38.767Z,17.73
2017-11-22T11:26:04.804Z,16.67
2017-11-22T11:28:30.795Z,17.30
2017-11-22T11:30:56.797Z,15.05
2017-11-22T11:33:22.777Z,15.30
2017-11-22T11:36:02.318Z,15.30
2017-11-22T11:38:29.041Z,14.50
2017-11-22T11:40:55.018Z,14.90
2017-11-22T11:43:21.308Z,15.43
2017-11-22T11:45:48.060Z,15.35
2017-11-22T11:48:14.046Z,15.35
2017-11-22T11:50:40.414Z,16.12
2017-11-22T11:53:06.392Z,17.40
2017-11-22T11:55:32.399Z,17.55
2017-11-22T11:57:58.387Z,18.80
2017-11-22T12:00:24.430Z,19.67
2017-11-22T12:02:50.817Z,20.35
2017-11-22T12:05:17.567Z,19.40
2017-11-22T12:07:44.291Z,20.02
2017-11-22T12:10:11.770Z,20.50
2017-11-22T12:12:37.774Z,21.40
2017-11-22T12:15:04.518Z,21.87
2017-11-22T12:17:31.266Z,23.63
2017-11-22T12:19:57.981Z,23.00
2017-11-22T12:22:30.008Z,23.95
2017-11-22T12:24:56.284Z,23.37
2017-11-22T12:27:22.998Z,23.33
2017-11-22T12:29:49.002Z,21.92
2017-11-22T12:32:15.265Z,22.83
2017-11-22T12:34:42.030Z,22.48
2017-11-22T12:37:08.014Z,23.73
2017-11-22T12:39:35.086Z,22.92
2017-11-22T12:42:01.798Z,22.60
2017-11-22T12:44:27.785Z,23.83
2017-11-22T12:46:54.094Z,24.30
2017-11-22T12:49:20.062Z,24.80
2017-11-22T12:51:46.045Z,24.65
2017-11-22T12:54:12.039Z,24.60
2017-11-22T12:56:38.796Z,26.12
2017-11-22T12:59:04.992Z,26.30
2017-11-22T13:01:31.020Z,26.23
2017-11-22T13:03:57.758Z,27.37
2017-11-22T13:06:24.510Z,26.35
2017-11-22T13:08:50.557Z,26.83
2017-11-22T13:11:22.782Z,27.45
2017-11-22T13:13:49.013Z,27.80
2017-11-22T13:16:15.732Z,27.50
2017-11-22T13:18:41.726Z,25.92
2017-11-22T13:21:14.880Z,25.20
2017-11-22T13:23:40.893Z,26.12
2017-11-22T13:26:07.619Z,24.15
2017-11-22T13:28:33.647Z,26.37
2017-11-22T13:31:00.370Z,24.30
2017-11-22T13:33:26.366Z,25.50
2017-11-22T13:35:52.375Z,24.93
2017-11-22T13:38:18.351Z,25.02
2017-11-22T13:40:45.085Z,26.62
2017-11-22T13:43:11.374Z,25.92
2017-11-22T13:45:37.396Z,24.00
2017-11-22T13:48:03.362Z,24.90
2017-11-22T13:50:30.467Z,23.85
2017-11-22T13:52:56.435Z,23.45
2017-11-22T13:55:23.177Z,23.30
2017-11-22T13:57:49.930Z,23.00
2017-11-22T14:00:15.917Z,23.08
2017-11-22T14:02:41.898Z,22.30
2017-11-22T14:05:08.006Z,21.85
2017-11-22T14:07:33.989Z,21.40
2017-11-22T14:09:59.971Z,23.00
2017-11-22T14:12:26.256Z,20.92
2017-11-22T14:14:52.964Z,21.40
2017-11-22T14:17:18.950Z,20.62
2017-11-22T14:19:44.936Z,21.43
2017-11-22T14:22:11.686Z,19.02
2017-11-22T14:24:37.661Z,19.95
2017-11-22T14:27:03.661Z,20.77
2017-11-22T14:29:29.640Z,20.40
2017-11-22T14:31:56.387Z,19.87
2017-11-22T14:34:23.323Z,20.00
2017-11-22T14:36:50.045Z,20.37
2017-11-22T14:39:16.029Z,20.50
2017-11-22T14:41:42.033Z,21.92
2017-11-22T14:44:08.137Z,20.88
2017-11-22T14:46:34.874Z,20.90
2017-11-22T14:49:01.642Z,19.70
2017-11-22T14:51:27.629Z,21.02
2017-11-22T14:53:54.350Z,21.00
2017-11-22T14:56:20.355Z,21.20
2017-11-22T14:58:46.358Z,19.90
2017-11-22T15:01:12.442Z,20.00
2017-11-22T15:03:39.216Z,20.10
2017-11-22T15:06:05.211Z,21.42
2017-11-22T15:08:31.192Z,19.93
2017-11-22T15:10:57.214Z,20.48
2017-11-22T15:13:23.193Z,20.20
2017-11-22T15:15:49.390Z,20.12
2017-11-22T15:18:16.116Z,20.85
2017-11-22T15:20:42.082Z,19.83
2017-11-22T15:23:08.083Z,20.25
2017-11-22T15:25:34.074Z,18.75
2017-11-22T15:28:00.066Z,20.73
2017-11-22T15:30:26.069Z,20.10
2017-11-22T15:32:52.046Z,17.87
2017-11-22T15:35:18.009Z,18.92
2017-11-22T15:37:44.069Z,18.15
2017-11-22T15:40:10.070Z,19.25
2017-11-22T15:42:36.038Z,18.70
2017-11-22T15:45:02.787Z,18.15
2017-11-22T15:47:29.517Z,19.17
2017-11-22T15:49:56.373Z,18.97
2017-11-22T15:52:25.360Z,18.40
2017-11-22T15:54:51.943Z,19.00
2017-11-22T15:57:19.363Z,19.30
2017-11-22T15:59:45.368Z,19.23
2017-11-22T16:02:12.106Z,19.52
2017-11-22T16:04:38.853Z,18.20
2017-11-22T16:07:05.606Z,17.75
2017-11-22T16:09:31.585Z,19.17
2017-11-22T16:11:57.903Z,20.45
2017-11-22T16:14:23.929Z,20.13
2017-11-22T16:16:49.938Z,19.25
2017-11-22T16:19:15.954Z,19.80
2017-11-22T16:21:41.929Z,20.17
2017-11-22T16:24:08.666Z,20.65
2017-11-22T16:26:35.441Z,19.23
2017-11-22T16:29:01.450Z,20.07
2017-11-22T16:31:27.439Z,19.48
2017-11-22T16:33:54.479Z,20.75
2017-11-22T16:36:20.477Z,20.20
2017-11-22T16:38:47.248Z,20.27
2017-11-22T16:41:13.241Z,20.70
2017-11-22T16:43:39.242Z,22.30
2017-11-22T16:46:05.247Z,21.95
2017-11-22T16:48:31.257Z,21.90
2017-11-22T16:50:57.994Z,22.53
2017-11-22T16:53:24.735Z,21.95
2017-11-22T16:55:50.741Z,22.98
2017-11-22T16:58:17.489Z,23.35
2017-11-22T17:00:44.213Z,24.17
2017-11-22T17:03:10.194Z,22.05
2017-11-22T17:05:36.229Z,22.58
2017-11-22T17:08:02.223Z,23.10
2017-11-22T17:10:28.204Z,22.08
2017-11-22T17:12:54.218Z,23.05
2017-11-22T17:15:20.217Z,23.25
2017-11-22T17:17:46.252Z,22.52
2017-11-22T17:20:12.495Z,22.20
2017-11-22T17:22:40.377Z,22.48
2017-11-22T17:25:07.426Z,22.00
2017-11-22T17:27:34.269Z,22.95
2017-11-22T17:30:01.003Z,22.55
2017-11-22T17:32:27.733Z,22.67
2017-11-22T17:34:54.474Z,22.47
2017-11-22T17:37:30.845Z,23.73
2017-11-22T17:39:56.973Z,22.30
2017-11-22T17:42:23.711Z,23.70
2017-11-22T17:44:50.445Z,21.90
2017-11-22T17:47:17.384Z,21.12
2017-11-22T17:49:44.742Z,21.60
2017-11-22T17:52:11.468Z,21.70
2017-11-22T17:54:37.482Z,21.73
2017-11-22T17:57:03.491Z,21.65
2017-11-22T17:59:29.486Z,20.08
2017-11-22T18:01:55.461Z,19.20
2017-11-22T18:04:22.196Z,20.73
2017-11-22T18:06:48.195Z,20.47
2017-11-22T18:09:14.201Z,20.70
2017-11-22T18:11:40.166Z,20.90
2017-11-22T18:14:06.927Z,19.62
2017-11-22T18:16:34.360Z,19.60
2017-11-22T18:21:34.506Z,19.05
2017-11-22T18:24:00.534Z,18.92
2017-11-22T18:26:26.524Z,17.70
2017-11-22T18:28:52.871Z,18.10
2017-11-22T18:31:19.622Z,19.33
2017-11-22T18:33:46.357Z,19.25
2017-11-22T18:36:13.114Z,17.90
2017-11-22T18:38:39.120Z,17.02
2017-11-22T18:41:05.852Z,16.73
2017-11-22T18:43:32.794Z,15.85
2017-11-22T18:45:59.533Z,15.95
2017-11-22T18:48:26.275Z,16.27
2017-11-22T18:50:53.335Z,15.68
2017-11-22T18:53:20.071Z,15.50
2017-11-22T18:55:46.800Z,17.00
2017-11-22T18:58:13.558Z,15.80
2017-11-22T19:00:39.538Z,15.90
2017-11-22T19:03:05.564Z,15.82
2017-11-22T19:05:31.576Z,15.90
2017-11-22T19:07:57.574Z,15.55
2017-11-22T19:10:23.571Z,15.68
2017-11-22T19:12:49.565Z,16.40
2017-11-22T19:15:16.298Z,15.98
2017-11-22T19:17:42.290Z,16.33
2017-11-22T19:20:08.316Z,15.93
2017-11-22T19:22:34.322Z,15.20
2017-11-22T19:25:00.342Z,15.30
2017-11-22T19:27:26.676Z,16.45
2017-11-22T19:29:52.715Z,17.15
2017-11-22T19:32:18.756Z,17.23
2017-11-22T19:34:44.900Z,17.12
2017-11-22T19:37:12.463Z,17.10
2017-11-22T19:39:39.220Z,16.60
2017-11-22T19:42:05.283Z,17.05
2017-11-22T19:44:31.354Z,17.25
2017-11-22T19:46:57.331Z,17.30
2017-11-22T19:49:23.360Z,16.83
2017-11-22T19:51:50.209Z,17.25
2017-11-22T19:54:16.263Z,16.98
2017-11-22T19:56:42.417Z,15.80
2017-11-22T19:59:08.471Z,16.33
2017-11-22T20:01:34.562Z,16.98
2017-11-22T20:04:00.681Z,17.15
2017-11-22T20:06:26.722Z,17.10
2017-11-22T20:08:52.774Z,16.80
2017-11-22T20:11:18.786Z,16.37
2017-11-22T20:13:44.806Z,16.52
2017-11-22T20:16:10.868Z,17.00
2017-11-22T20:18:37.727Z,16.45
2017-11-22T20:21:03.799Z,17.02
2017-11-22T20:23:29.803Z,16.45
2017-11-22T20:25:55.844Z,17.02
2017-11-22T20:28:21.894Z,16.70
2017-11-22T20:30:48.634Z,16.67
2017-11-22T20:33:14.721Z,16.30
2017-11-22T20:35:40.765Z,16.20
2017-11-22T20:38:06.829Z,15.82
2017-11-22T20:40:32.842Z,15.50
2017-11-22T20:42:58.962Z,15.63
2017-11-22T20:45:25.004Z,15.13
2017-11-22T20:47:51.041Z,15.38
2017-11-22T20:50:17.164Z,15.67
2017-11-22T20:52:43.204Z,15.48
2017-11-22T20:55:09.230Z,15.30
2017-11-22T20:57:39.759Z,14.90
2017-11-22T21:00:07.928Z,14.30
2017-11-22T21:02:34.405Z,13.83
2017-11-22T21:05:01.276Z,14.32
2017-11-22T21:07:27.255Z,13.62
2017-11-22T21:09:54.011Z,14.13
2017-11-22T21:12:20.063Z,14.10
2017-11-22T21:14:46.063Z,14.05
2017-11-22T21:17:12.072Z,13.68
2017-11-22T21:19:38.854Z,14.30
2017-11-22T21:22:04.859Z,13.60
2017-11-22T21:24:30.878Z,13.00
2017-11-22T21:26:56.885Z,13.00
2017-11-22T21:29:23.626Z,13.57
2017-11-22T21:31:49.786Z,12.75
2017-11-22T21:34:15.784Z,12.70
2017-11-22T21:36:41.766Z,13.10
2017-11-22T21:39:07.765Z,12.73
2017-11-22T21:41:33.775Z,11.77
2017-11-22T21:43:59.779Z,11.68
2017-11-22T21:46:25.767Z,11.68
2017-11-22T21:48:52.545Z,12.50
2017-11-22T21:51:18.552Z,27.70
2017-11-22T21:53:44.541Z,12.10
2017-11-22T21:56:10.537Z,12.23
2017-11-22T21:58:36.555Z,13.20
2017-11-22T22:01:02.559Z,12.52
2017-11-22T22:03:28.570Z,11.80
2017-11-22T22:05:54.610Z,11.40
2017-11-22T22:08:20.598Z,11.10
2017-11-22T22:10:46.721Z,11.35
2017-11-22T22:13:13.487Z,11.18
2017-11-22T22:15:39.458Z,11.40
2017-11-22T22:18:05.466Z,12.25
2017-11-22T22:20:31.522Z,11.97
2017-11-22T22:22:58.287Z,11.00
2017-11-22T22:25:24.310Z,11.75
2017-11-22T22:27:50.610Z,11.50
2017-11-22T22:30:17.357Z,11.60
2017-11-22T22:32:44.118Z,11.13
2017-11-22T22:35:10.149Z,11.30
2017-11-22T22:37:36.162Z,11.40
2017-11-22T22:40:02.771Z,10.90
2017-11-22T22:42:29.512Z,11.65
2017-11-22T22:44:55.711Z,11.15
2017-11-22T22:47:21.724Z,11.20
2017-11-22T22:49:47.903Z,11.45
2017-11-22T22:52:14.019Z,11.57
2017-11-22T22:54:40.001Z,11.18
2017-11-22T22:57:06.003Z,10.83
2017-11-22T22:59:32.024Z,11.07
2017-11-22T23:01:58.104Z,11.25
2017-11-22T23:04:24.115Z,11.70
2017-11-22T23:06:50.879Z,10.50
2017-11-22T23:09:17.120Z,10.88
2017-11-22T23:11:43.210Z,11.23
2017-11-22T23:14:09.955Z,10.88
2017-11-22T23:16:36.820Z,11.35
2017-11-22T23:19:02.821Z,11.20
2017-11-22T23:21:29.552Z,9.70
2017-11-22T23:23:56.491Z,10.32
2017-11-22T23:26:22.451Z,9.70
2017-11-22T23:28:48.474Z,10.45
2017-11-22T23:31:14.589Z,10.40
2017-11-22T23:33:40.582Z,10.80
2017-11-22T23:36:07.305Z,9.95
2017-11-22T23:38:33.650Z,10.10
2017-11-22T23:41:00.382Z,10.57
2017-11-22T23:43:26.399Z,10.20
2017-11-22T23:45:52.542Z,10.30
2017-11-22T23:48:19.286Z,9.57
2017-11-22T23:50:46.010Z,9.88
2017-11-22T23:53:12.030Z,10.00
2017-11-22T23:55:38.035Z,9.45
2017-11-22T23:58:04.062Z,9.70
